sensor_id;sensor_type;location;lat;lon;timestamp;temperature;humidity
7192;DHT22;3637;51.494;11.958;2022-08-11T00:00:58;20.80;63.70
7192;DHT22;3637;51.494;11.958;2022-08-11T00:04:04;20.70;63.50
7192;DHT22;3637;51.494;11.958;2022-08-11T00:07:06;20.60;63.80
7192;DHT22;3637;51.494;11.958;2022-08-11T00:10:11;20.50;64.50
7192;DHT22;3637;51.494;11.958;2022-08-11T00:13:13;20.40;64.80
7192;DHT22;3637;51.494;11.958;2022-08-11T00:16:18;20.40;65.00
7192;DHT22;3637;51.494;11.958;2022-08-11T00:19:23;20.20;66.10
7192;DHT22;3637;51.494;11.958;2022-08-11T00:22:26;20.10;65.60
7192;DHT22;3637;51.494;11.958;2022-08-11T00:25:29;20.20;64.50
7192;DHT22;3637;51.494;11.958;2022-08-11T00:28:32;20.10;65.70
7192;DHT22;3637;51.494;11.958;2022-08-11T00:31:37;20.10;66.40
7192;DHT22;3637;51.494;11.958;2022-08-11T00:34:45;20.00;67.00
7192;DHT22;3637;51.494;11.958;2022-08-11T00:37:49;19.90;66.80
7192;DHT22;3637;51.494;11.958;2022-08-11T00:40:58;19.80;67.20
7192;DHT22;3637;51.494;11.958;2022-08-11T00:44:31;19.70;67.50
7192;DHT22;3637;51.494;11.958;2022-08-11T00:47:49;19.70;68.50
7192;DHT22;3637;51.494;11.958;2022-08-11T00:51:04;19.60;68.00
7192;DHT22;3637;51.494;11.958;2022-08-11T00:54:27;19.50;66.50
7192;DHT22;3637;51.494;11.958;2022-08-11T00:58:09;19.60;66.80
7192;DHT22;3637;51.494;11.958;2022-08-11T01:01:21;19.50;66.50
7192;DHT22;3637;51.494;11.958;2022-08-11T01:08:45;19.50;66.00
7192;DHT22;3637;51.494;11.958;2022-08-11T01:12:10;19.50;66.20
7192;DHT22;3637;51.494;11.958;2022-08-11T01:30:28;19.30;67.20
7192;DHT22;3637;51.494;11.958;2022-08-11T01:34:07;19.30;67.50
7192;DHT22;3637;51.494;11.958;2022-08-11T01:37:51;19.30;68.20
7192;DHT22;3637;51.494;11.958;2022-08-11T01:41:20;19.30;68.00
7192;DHT22;3637;51.494;11.958;2022-08-11T01:44:44;19.30;67.20
7192;DHT22;3637;51.494;11.958;2022-08-11T01:48:01;19.20;67.20
7192;DHT22;3637;51.494;11.958;2022-08-11T01:51:19;19.20;68.70
7192;DHT22;3637;51.494;11.958;2022-08-11T01:54:30;19.10;70.50
7192;DHT22;3637;51.494;11.958;2022-08-11T01:57:36;19.00;71.00
7192;DHT22;3637;51.494;11.958;2022-08-11T02:00:47;19.00;71.20
7192;DHT22;3637;51.494;11.958;2022-08-11T02:03:56;18.90;72.30
7192;DHT22;3637;51.494;11.958;2022-08-11T02:07:03;18.80;73.60
7192;DHT22;3637;51.494;11.958;2022-08-11T02:10:18;18.80;73.70
7192;DHT22;3637;51.494;11.958;2022-08-11T02:13:46;18.80;73.10
7192;DHT22;3637;51.494;11.958;2022-08-11T02:17:10;18.70;72.90
7192;DHT22;3637;51.494;11.958;2022-08-11T02:20:18;18.70;73.10
7192;DHT22;3637;51.494;11.958;2022-08-11T02:23:48;18.70;73.40
7192;DHT22;3637;51.494;11.958;2022-08-11T02:27:00;18.60;72.60
7192;DHT22;3637;51.494;11.958;2022-08-11T02:30:06;18.60;71.90
7192;DHT22;3637;51.494;11.958;2022-08-11T02:33:17;18.50;71.90
7192;DHT22;3637;51.494;11.958;2022-08-11T02:36:41;18.60;69.80
7192;DHT22;3637;51.494;11.958;2022-08-11T02:39:54;18.60;69.20
7192;DHT22;3637;51.494;11.958;2022-08-11T02:43:10;18.60;68.80
7192;DHT22;3637;51.494;11.958;2022-08-11T02:46:20;18.60;68.80
7192;DHT22;3637;51.494;11.958;2022-08-11T02:49:40;18.60;69.80
7192;DHT22;3637;51.494;11.958;2022-08-11T02:53:00;18.60;68.80
7192;DHT22;3637;51.494;11.958;2022-08-11T02:56:10;18.50;68.60
7192;DHT22;3637;51.494;11.958;2022-08-11T03:03:12;18.40;69.40
7192;DHT22;3637;51.494;11.958;2022-08-11T03:06:26;18.40;69.00
7192;DHT22;3637;51.494;11.958;2022-08-11T03:09:42;18.40;68.60
7192;DHT22;3637;51.494;11.958;2022-08-11T03:12:50;18.30;68.40
7192;DHT22;3637;51.494;11.958;2022-08-11T03:16:17;18.30;68.70
7192;DHT22;3637;51.494;11.958;2022-08-11T03:19:45;18.20;68.50
7192;DHT22;3637;51.494;11.958;2022-08-11T03:22:57;18.10;68.40
7192;DHT22;3637;51.494;11.958;2022-08-11T03:26:06;18.10;68.70
7192;DHT22;3637;51.494;11.958;2022-08-11T03:29:15;18.10;68.50
7192;DHT22;3637;51.494;11.958;2022-08-11T03:32:27;18.10;68.80
7192;DHT22;3637;51.494;11.958;2022-08-11T03:35:33;18.10;68.70
7192;DHT22;3637;51.494;11.958;2022-08-11T03:38:47;18.00;68.80
7192;DHT22;3637;51.494;11.958;2022-08-11T03:42:01;17.90;69.10
7192;DHT22;3637;51.494;11.958;2022-08-11T03:45:19;17.90;69.10
7192;DHT22;3637;51.494;11.958;2022-08-11T03:48:31;17.90;69.10
7192;DHT22;3637;51.494;11.958;2022-08-11T03:52:01;17.90;69.20
7192;DHT22;3637;51.494;11.958;2022-08-11T03:55:12;17.90;69.10
7192;DHT22;3637;51.494;11.958;2022-08-11T04:05:48;17.80;69.90
7192;DHT22;3637;51.494;11.958;2022-08-11T04:09:45;17.70;70.30
7192;DHT22;3637;51.494;11.958;2022-08-11T04:13:08;17.70;70.90
7192;DHT22;3637;51.494;11.958;2022-08-11T04:16:45;17.70;71.50
7192;DHT22;3637;51.494;11.958;2022-08-11T04:30:57;17.70;72.10
7192;DHT22;3637;51.494;11.958;2022-08-11T04:34:11;17.70;72.10
7192;DHT22;3637;51.494;11.958;2022-08-11T04:37:48;17.70;72.20
7192;DHT22;3637;51.494;11.958;2022-08-11T04:45:43;17.60;73.00
7192;DHT22;3637;51.494;11.958;2022-08-11T04:53:04;17.50;73.60
7192;DHT22;3637;51.494;11.958;2022-08-11T04:56:38;17.50;73.60
7192;DHT22;3637;51.494;11.958;2022-08-11T05:00:04;17.50;73.50
7192;DHT22;3637;51.494;11.958;2022-08-11T05:08:16;17.50;74.80
7192;DHT22;3637;51.494;11.958;2022-08-11T05:14:59;17.60;73.30
7192;DHT22;3637;51.494;11.958;2022-08-11T05:18:22;17.70;72.40
7192;DHT22;3637;51.494;11.958;2022-08-11T05:21:47;17.80;72.80
7192;DHT22;3637;51.494;11.958;2022-08-11T05:25:14;17.80;72.30
7192;DHT22;3637;51.494;11.958;2022-08-11T05:28:41;17.80;72.00
7192;DHT22;3637;51.494;11.958;2022-08-11T05:32:01;17.80;72.00
7192;DHT22;3637;51.494;11.958;2022-08-11T05:35:26;17.90;72.40
7192;DHT22;3637;51.494;11.958;2022-08-11T05:38:33;17.90;73.70
7192;DHT22;3637;51.494;11.958;2022-08-11T05:41:56;17.90;73.30
7192;DHT22;3637;51.494;11.958;2022-08-11T05:45:17;17.90;71.70
7192;DHT22;3637;51.494;11.958;2022-08-11T05:48:38;18.10;71.20
7192;DHT22;3637;51.494;11.958;2022-08-11T05:52:02;18.20;71.20
7192;DHT22;3637;51.494;11.958;2022-08-11T05:55:23;18.20;71.20
7192;DHT22;3637;51.494;11.958;2022-08-11T05:58:48;18.30;71.00
7192;DHT22;3637;51.494;11.958;2022-08-11T06:01:51;18.30;71.30
7192;DHT22;3637;51.494;11.958;2022-08-11T06:04:54;18.40;70.90
7192;DHT22;3637;51.494;11.958;2022-08-11T06:07:57;18.50;70.30
7192;DHT22;3637;51.494;11.958;2022-08-11T06:11:01;18.60;69.70
7192;DHT22;3637;51.494;11.958;2022-08-11T06:14:06;18.70;69.40
7192;DHT22;3637;51.494;11.958;2022-08-11T06:17:11;18.70;70.10
7192;DHT22;3637;51.494;11.958;2022-08-11T06:20:15;18.80;70.00
7192;DHT22;3637;51.494;11.958;2022-08-11T06:23:18;18.90;69.50
7192;DHT22;3637;51.494;11.958;2022-08-11T06:26:23;18.90;69.80
7192;DHT22;3637;51.494;11.958;2022-08-11T06:29:27;19.00;69.50
7192;DHT22;3637;51.494;11.958;2022-08-11T06:32:33;19.10;69.60
7192;DHT22;3637;51.494;11.958;2022-08-11T06:35:45;19.00;69.00
7192;DHT22;3637;51.494;11.958;2022-08-11T06:39:00;19.10;68.10
7192;DHT22;3637;51.494;11.958;2022-08-11T06:42:06;19.10;68.10
7192;DHT22;3637;51.494;11.958;2022-08-11T06:45:26;19.30;68.40
7192;DHT22;3637;51.494;11.958;2022-08-11T06:48:30;19.30;69.00
7192;DHT22;3637;51.494;11.958;2022-08-11T06:51:34;19.40;69.10
7192;DHT22;3637;51.494;11.958;2022-08-11T06:54:38;19.40;67.70
7192;DHT22;3637;51.494;11.958;2022-08-11T06:57:45;19.50;67.80
7192;DHT22;3637;51.494;11.958;2022-08-11T07:01:09;19.60;68.10
7192;DHT22;3637;51.494;11.958;2022-08-11T07:04:16;19.70;67.10
7192;DHT22;3637;51.494;11.958;2022-08-11T07:15:18;19.90;69.80
7192;DHT22;3637;51.494;11.958;2022-08-11T07:18:41;20.00;70.40
7192;DHT22;3637;51.494;11.958;2022-08-11T07:22:02;20.10;71.60
7192;DHT22;3637;51.494;11.958;2022-08-11T07:25:23;20.20;67.80
7192;DHT22;3637;51.494;11.958;2022-08-11T07:28:46;20.40;66.80
7192;DHT22;3637;51.494;11.958;2022-08-11T07:32:08;20.50;66.60
7192;DHT22;3637;51.494;11.958;2022-08-11T07:35:19;20.60;69.90
7192;DHT22;3637;51.494;11.958;2022-08-11T07:38:25;20.60;72.40
7192;DHT22;3637;51.494;11.958;2022-08-11T07:41:43;20.60;68.40
7192;DHT22;3637;51.494;11.958;2022-08-11T07:44:46;20.80;67.70
7192;DHT22;3637;51.494;11.958;2022-08-11T07:48:06;20.90;66.50
7192;DHT22;3637;51.494;11.958;2022-08-11T07:51:29;21.00;68.60
7192;DHT22;3637;51.494;11.958;2022-08-11T07:54:48;21.00;67.90
7192;DHT22;3637;51.494;11.958;2022-08-11T07:57:50;21.10;67.50
7192;DHT22;3637;51.494;11.958;2022-08-11T08:01:11;21.20;66.90
7192;DHT22;3637;51.494;11.958;2022-08-11T08:04:32;21.30;68.40
7192;DHT22;3637;51.494;11.958;2022-08-11T08:07:53;21.40;64.40
7192;DHT22;3637;51.494;11.958;2022-08-11T08:11:13;21.50;65.90
7192;DHT22;3637;51.494;11.958;2022-08-11T08:14:33;21.60;63.50
7192;DHT22;3637;51.494;11.958;2022-08-11T08:17:54;21.70;65.00
7192;DHT22;3637;51.494;11.958;2022-08-11T08:20:58;21.80;66.30
7192;DHT22;3637;51.494;11.958;2022-08-11T08:24:13;21.90;65.30
7192;DHT22;3637;51.494;11.958;2022-08-11T08:27:16;21.90;64.30
7192;DHT22;3637;51.494;11.958;2022-08-11T08:30:19;22.00;65.70
7192;DHT22;3637;51.494;11.958;2022-08-11T08:33:39;22.20;63.00
7192;DHT22;3637;51.494;11.958;2022-08-11T08:36:43;22.20;62.50
7192;DHT22;3637;51.494;11.958;2022-08-11T08:39:47;22.30;63.00
7192;DHT22;3637;51.494;11.958;2022-08-11T08:42:54;22.50;61.00
7192;DHT22;3637;51.494;11.958;2022-08-11T08:45:57;22.70;59.90
7192;DHT22;3637;51.494;11.958;2022-08-11T08:49:00;22.80;59.50
7192;DHT22;3637;51.494;11.958;2022-08-11T08:52:05;22.90;58.20
7192;DHT22;3637;51.494;11.958;2022-08-11T08:55:14;23.00;56.60
7192;DHT22;3637;51.494;11.958;2022-08-11T08:58:20;23.10;56.50
7192;DHT22;3637;51.494;11.958;2022-08-11T09:01:23;23.00;56.60
7192;DHT22;3637;51.494;11.958;2022-08-11T09:04:26;23.20;56.00
7192;DHT22;3637;51.494;11.958;2022-08-11T09:07:29;23.20;56.00
7192;DHT22;3637;51.494;11.958;2022-08-11T09:10:33;23.30;55.90
7192;DHT22;3637;51.494;11.958;2022-08-11T09:13:38;23.50;55.20
7192;DHT22;3637;51.494;11.958;2022-08-11T09:16:42;23.50;54.90
7192;DHT22;3637;51.494;11.958;2022-08-11T09:19:45;23.60;53.50
7192;DHT22;3637;51.494;11.958;2022-08-11T09:22:49;23.60;53.70
7192;DHT22;3637;51.494;11.958;2022-08-11T09:26:10;23.70;54.50
7192;DHT22;3637;51.494;11.958;2022-08-11T09:29:30;23.90;54.00
7192;DHT22;3637;51.494;11.958;2022-08-11T09:32:33;24.00;52.90
7192;DHT22;3637;51.494;11.958;2022-08-11T09:35:35;24.10;53.00
7192;DHT22;3637;51.494;11.958;2022-08-11T09:38:38;24.30;52.50
7192;DHT22;3637;51.494;11.958;2022-08-11T09:42:02;24.40;52.00
7192;DHT22;3637;51.494;11.958;2022-08-11T09:45:06;24.40;51.90
7192;DHT22;3637;51.494;11.958;2022-08-11T09:48:08;24.50;52.70
7192;DHT22;3637;51.494;11.958;2022-08-11T09:51:12;24.60;51.90
7192;DHT22;3637;51.494;11.958;2022-08-11T09:54:15;24.70;50.30
7192;DHT22;3637;51.494;11.958;2022-08-11T09:57:19;24.70;49.50
7192;DHT22;3637;51.494;11.958;2022-08-11T10:00:39;24.80;49.80
7192;DHT22;3637;51.494;11.958;2022-08-11T10:03:42;24.90;48.60
7192;DHT22;3637;51.494;11.958;2022-08-11T10:06:48;24.90;48.20
7192;DHT22;3637;51.494;11.958;2022-08-11T10:10:04;25.00;48.30
7192;DHT22;3637;51.494;11.958;2022-08-11T10:13:10;25.10;49.30
7192;DHT22;3637;51.494;11.958;2022-08-11T10:16:16;25.20;48.90
7192;DHT22;3637;51.494;11.958;2022-08-11T10:19:18;25.30;48.20
7192;DHT22;3637;51.494;11.958;2022-08-11T10:22:21;25.40;47.70
7192;DHT22;3637;51.494;11.958;2022-08-11T10:25:41;25.50;47.90
7192;DHT22;3637;51.494;11.958;2022-08-11T10:29:04;25.50;47.10
7192;DHT22;3637;51.494;11.958;2022-08-11T10:32:29;25.70;48.20
7192;DHT22;3637;51.494;11.958;2022-08-11T10:35:48;25.70;46.70
7192;DHT22;3637;51.494;11.958;2022-08-11T10:38:50;25.80;45.80
7192;DHT22;3637;51.494;11.958;2022-08-11T10:41:53;25.80;46.10
7192;DHT22;3637;51.494;11.958;2022-08-11T10:45:15;25.80;45.90
7192;DHT22;3637;51.494;11.958;2022-08-11T10:48:37;25.80;45.50
7192;DHT22;3637;51.494;11.958;2022-08-11T10:51:39;25.80;46.30
7192;DHT22;3637;51.494;11.958;2022-08-11T10:54:59;25.80;45.70
7192;DHT22;3637;51.494;11.958;2022-08-11T10:58:19;25.90;46.40
7192;DHT22;3637;51.494;11.958;2022-08-11T11:01:41;26.00;45.70
7192;DHT22;3637;51.494;11.958;2022-08-11T11:04:56;26.00;45.20
7192;DHT22;3637;51.494;11.958;2022-08-11T11:08:06;26.10;43.60
7192;DHT22;3637;51.494;11.958;2022-08-11T11:11:34;26.10;43.70
7192;DHT22;3637;51.494;11.958;2022-08-11T11:14:54;26.00;44.10
7192;DHT22;3637;51.494;11.958;2022-08-11T11:18:19;26.10;45.00
7192;DHT22;3637;51.494;11.958;2022-08-11T11:21:23;26.00;45.50
7192;DHT22;3637;51.494;11.958;2022-08-11T11:24:41;26.10;45.10
7192;DHT22;3637;51.494;11.958;2022-08-11T11:27:59;26.20;46.50
7192;DHT22;3637;51.494;11.958;2022-08-11T11:31:16;26.30;44.90
7192;DHT22;3637;51.494;11.958;2022-08-11T11:34:42;26.30;44.00
7192;DHT22;3637;51.494;11.958;2022-08-11T11:37:49;26.40;43.60
7192;DHT22;3637;51.494;11.958;2022-08-11T11:40:52;26.40;43.40
7192;DHT22;3637;51.494;11.958;2022-08-11T11:44:10;26.30;43.70
7192;DHT22;3637;51.494;11.958;2022-08-11T11:47:15;26.40;43.20
7192;DHT22;3637;51.494;11.958;2022-08-11T11:50:24;26.40;43.50
7192;DHT22;3637;51.494;11.958;2022-08-11T11:53:28;26.50;42.70
7192;DHT22;3637;51.494;11.958;2022-08-11T11:56:30;26.50;41.90
7192;DHT22;3637;51.494;11.958;2022-08-11T11:59:32;26.50;43.10
7192;DHT22;3637;51.494;11.958;2022-08-11T12:02:52;26.70;42.30
7192;DHT22;3637;51.494;11.958;2022-08-11T12:05:58;26.80;42.20
7192;DHT22;3637;51.494;11.958;2022-08-11T12:09:00;26.90;42.30
7192;DHT22;3637;51.494;11.958;2022-08-11T12:12:03;26.90;42.70
7192;DHT22;3637;51.494;11.958;2022-08-11T12:15:23;26.90;42.60
7192;DHT22;3637;51.494;11.958;2022-08-11T12:18:25;26.80;42.90
7192;DHT22;3637;51.494;11.958;2022-08-11T12:21:29;26.90;42.10
7192;DHT22;3637;51.494;11.958;2022-08-11T12:24:33;26.90;42.70
7192;DHT22;3637;51.494;11.958;2022-08-11T12:28:04;27.00;42.20
7192;DHT22;3637;51.494;11.958;2022-08-11T12:31:06;27.00;43.30
7192;DHT22;3637;51.494;11.958;2022-08-11T12:34:11;27.10;42.50
7192;DHT22;3637;51.494;11.958;2022-08-11T12:37:16;27.10;41.90
7192;DHT22;3637;51.494;11.958;2022-08-11T12:40:24;27.10;42.60
7192;DHT22;3637;51.494;11.958;2022-08-11T12:43:45;27.20;42.40
7192;DHT22;3637;51.494;11.958;2022-08-11T12:47:05;27.20;41.60
7192;DHT22;3637;51.494;11.958;2022-08-11T12:50:08;27.20;41.10
7192;DHT22;3637;51.494;11.958;2022-08-11T12:53:31;27.30;40.90
7192;DHT22;3637;51.494;11.958;2022-08-11T12:56:37;27.40;40.80
7192;DHT22;3637;51.494;11.958;2022-08-11T13:00:04;27.40;40.70
7192;DHT22;3637;51.494;11.958;2022-08-11T13:03:24;27.40;40.50
7192;DHT22;3637;51.494;11.958;2022-08-11T13:06:44;27.40;40.70
7192;DHT22;3637;51.494;11.958;2022-08-11T13:09:47;27.30;40.80
7192;DHT22;3637;51.494;11.958;2022-08-11T13:12:50;27.40;41.50
7192;DHT22;3637;51.494;11.958;2022-08-11T13:15:52;27.50;40.50
7192;DHT22;3637;51.494;11.958;2022-08-11T13:18:55;27.50;40.30
7192;DHT22;3637;51.494;11.958;2022-08-11T13:21:58;27.50;41.20
7192;DHT22;3637;51.494;11.958;2022-08-11T13:25:03;27.50;40.50
7192;DHT22;3637;51.494;11.958;2022-08-11T13:28:06;27.60;40.50
7192;DHT22;3637;51.494;11.958;2022-08-11T13:31:10;27.70;39.60
7192;DHT22;3637;51.494;11.958;2022-08-11T13:34:12;27.70;39.60
7192;DHT22;3637;51.494;11.958;2022-08-11T13:37:15;27.70;40.40
7192;DHT22;3637;51.494;11.958;2022-08-11T13:40:22;27.70;40.30
7192;DHT22;3637;51.494;11.958;2022-08-11T13:43:25;27.90;39.70
7192;DHT22;3637;51.494;11.958;2022-08-11T13:46:28;27.90;39.90
7192;DHT22;3637;51.494;11.958;2022-08-11T13:49:31;27.90;40.70
7192;DHT22;3637;51.494;11.958;2022-08-11T13:52:34;27.90;39.40
7192;DHT22;3637;51.494;11.958;2022-08-11T13:55:40;27.90;38.80
7192;DHT22;3637;51.494;11.958;2022-08-11T13:58:43;27.90;38.40
7192;DHT22;3637;51.494;11.958;2022-08-11T14:01:50;27.90;38.60
7192;DHT22;3637;51.494;11.958;2022-08-11T14:04:55;28.00;38.60
7192;DHT22;3637;51.494;11.958;2022-08-11T14:08:00;27.90;39.00
7192;DHT22;3637;51.494;11.958;2022-08-11T14:11:06;27.90;38.60
7192;DHT22;3637;51.494;11.958;2022-08-11T14:14:30;27.80;38.80
7192;DHT22;3637;51.494;11.958;2022-08-11T14:17:33;27.90;38.70
7192;DHT22;3637;51.494;11.958;2022-08-11T14:20:39;28.00;39.20
7192;DHT22;3637;51.494;11.958;2022-08-11T14:24:02;28.00;38.10
7192;DHT22;3637;51.494;11.958;2022-08-11T14:27:07;27.90;38.80
7192;DHT22;3637;51.494;11.958;2022-08-11T14:30:12;27.90;39.30
7192;DHT22;3637;51.494;11.958;2022-08-11T14:33:35;28.00;39.00
7192;DHT22;3637;51.494;11.958;2022-08-11T14:36:38;27.90;38.30
7192;DHT22;3637;51.494;11.958;2022-08-11T14:39:43;28.00;38.80
7192;DHT22;3637;51.494;11.958;2022-08-11T14:42:47;28.00;38.50
7192;DHT22;3637;51.494;11.958;2022-08-11T14:46:07;27.90;38.70
7192;DHT22;3637;51.494;11.958;2022-08-11T14:49:28;27.90;38.50
7192;DHT22;3637;51.494;11.958;2022-08-11T14:52:32;27.80;38.30
7192;DHT22;3637;51.494;11.958;2022-08-11T14:55:36;27.80;37.90
7192;DHT22;3637;51.494;11.958;2022-08-11T14:58:58;27.80;38.30
7192;DHT22;3637;51.494;11.958;2022-08-11T15:02:02;27.80;38.40
7192;DHT22;3637;51.494;11.958;2022-08-11T15:05:22;27.90;38.70
7192;DHT22;3637;51.494;11.958;2022-08-11T15:08:28;27.90;39.30
7192;DHT22;3637;51.494;11.958;2022-08-11T15:11:47;27.90;38.70
7192;DHT22;3637;51.494;11.958;2022-08-11T15:15:09;27.90;37.50
7192;DHT22;3637;51.494;11.958;2022-08-11T15:18:37;28.00;37.90
7192;DHT22;3637;51.494;11.958;2022-08-11T15:21:39;27.90;37.10
7192;DHT22;3637;51.494;11.958;2022-08-11T15:25:03;27.90;37.70
7192;DHT22;3637;51.494;11.958;2022-08-11T15:28:07;27.90;38.00
7192;DHT22;3637;51.494;11.958;2022-08-11T15:31:29;27.90;38.70
7192;DHT22;3637;51.494;11.958;2022-08-11T15:34:53;28.00;38.50
7192;DHT22;3637;51.494;11.958;2022-08-11T15:38:14;28.10;38.60
7192;DHT22;3637;51.494;11.958;2022-08-11T15:41:17;28.00;38.60
7192;DHT22;3637;51.494;11.958;2022-08-11T15:44:41;28.00;38.50
7192;DHT22;3637;51.494;11.958;2022-08-11T15:48:09;28.00;38.80
7192;DHT22;3637;51.494;11.958;2022-08-11T15:51:16;28.00;39.00
7192;DHT22;3637;51.494;11.958;2022-08-11T15:54:24;27.90;38.70
7192;DHT22;3637;51.494;11.958;2022-08-11T15:57:29;28.00;38.50
7192;DHT22;3637;51.494;11.958;2022-08-11T16:00:49;27.90;39.20
7192;DHT22;3637;51.494;11.958;2022-08-11T16:04:15;27.90;38.50
7192;DHT22;3637;51.494;11.958;2022-08-11T16:07:20;27.90;37.60
7192;DHT22;3637;51.494;11.958;2022-08-11T16:10:26;27.90;38.60
7192;DHT22;3637;51.494;11.958;2022-08-11T16:13:28;27.90;38.40
7192;DHT22;3637;51.494;11.958;2022-08-11T16:16:48;27.90;38.80
7192;DHT22;3637;51.494;11.958;2022-08-11T16:19:55;27.80;39.00
7192;DHT22;3637;51.494;11.958;2022-08-11T16:23:01;27.80;40.90
7192;DHT22;3637;51.494;11.958;2022-08-11T16:26:07;27.80;39.90
7192;DHT22;3637;51.494;11.958;2022-08-11T16:29:11;27.80;39.30
7192;DHT22;3637;51.494;11.958;2022-08-11T16:32:17;27.80;39.10
7192;DHT22;3637;51.494;11.958;2022-08-11T16:35:24;27.90;38.40
7192;DHT22;3637;51.494;11.958;2022-08-11T16:38:45;28.00;38.70
7192;DHT22;3637;51.494;11.958;2022-08-11T16:41:48;27.90;39.10
7192;DHT22;3637;51.494;11.958;2022-08-11T16:45:09;27.90;39.20
7192;DHT22;3637;51.494;11.958;2022-08-11T16:48:31;27.80;40.00
7192;DHT22;3637;51.494;11.958;2022-08-11T16:51:35;27.70;39.80
7192;DHT22;3637;51.494;11.958;2022-08-11T16:54:39;27.70;39.20
7192;DHT22;3637;51.494;11.958;2022-08-11T16:57:41;27.60;39.50
7192;DHT22;3637;51.494;11.958;2022-08-11T17:01:01;27.60;39.80
7192;DHT22;3637;51.494;11.958;2022-08-11T17:04:08;27.70;39.10
7192;DHT22;3637;51.494;11.958;2022-08-11T17:07:32;27.60;39.60
7192;DHT22;3637;51.494;11.958;2022-08-11T17:10:56;27.60;40.10
7192;DHT22;3637;51.494;11.958;2022-08-11T17:14:20;27.60;39.60
7192;DHT22;3637;51.494;11.958;2022-08-11T17:17:26;27.50;40.00
7192;DHT22;3637;51.494;11.958;2022-08-11T17:20:29;27.40;39.80
7192;DHT22;3637;51.494;11.958;2022-08-11T17:23:34;27.30;39.60
7192;DHT22;3637;51.494;11.958;2022-08-11T17:26:50;27.30;39.60
7192;DHT22;3637;51.494;11.958;2022-08-11T17:29:58;27.20;40.10
7192;DHT22;3637;51.494;11.958;2022-08-11T17:33:01;27.20;39.90
7192;DHT22;3637;51.494;11.958;2022-08-11T17:36:21;27.10;40.30
7192;DHT22;3637;51.494;11.958;2022-08-11T17:39:28;27.00;40.10
7192;DHT22;3637;51.494;11.958;2022-08-11T17:42:32;27.00;39.80
7192;DHT22;3637;51.494;11.958;2022-08-11T17:45:53;26.90;40.00
7192;DHT22;3637;51.494;11.958;2022-08-11T17:49:14;26.90;40.00
7192;DHT22;3637;51.494;11.958;2022-08-11T17:52:17;26.90;40.40
7192;DHT22;3637;51.494;11.958;2022-08-11T17:55:38;26.80;40.30
7192;DHT22;3637;51.494;11.958;2022-08-11T17:58:56;26.80;40.30
7192;DHT22;3637;51.494;11.958;2022-08-11T18:02:17;26.70;40.30
7192;DHT22;3637;51.494;11.958;2022-08-11T18:05:38;26.60;40.30
7192;DHT22;3637;51.494;11.958;2022-08-11T18:08:44;26.60;40.30
7192;DHT22;3637;51.494;11.958;2022-08-11T18:12:06;26.60;40.40
7192;DHT22;3637;51.494;11.958;2022-08-11T18:15:28;26.50;40.80
7192;DHT22;3637;51.494;11.958;2022-08-11T18:18:47;26.40;41.60
7192;DHT22;3637;51.494;11.958;2022-08-11T18:22:08;26.40;41.10
7192;DHT22;3637;51.494;11.958;2022-08-11T18:25:30;26.30;41.10
7192;DHT22;3637;51.494;11.958;2022-08-11T18:28:54;26.20;40.90
7192;DHT22;3637;51.494;11.958;2022-08-11T18:32:16;26.20;41.10
7192;DHT22;3637;51.494;11.958;2022-08-11T18:35:37;26.10;41.50
7192;DHT22;3637;51.494;11.958;2022-08-11T18:38:57;26.00;41.50
7192;DHT22;3637;51.494;11.958;2022-08-11T18:42:19;26.00;41.60
7192;DHT22;3637;51.494;11.958;2022-08-11T18:45:44;25.90;41.90
7192;DHT22;3637;51.494;11.958;2022-08-11T18:49:08;25.80;42.30
7192;DHT22;3637;51.494;11.958;2022-08-11T18:52:29;25.80;42.20
7192;DHT22;3637;51.494;11.958;2022-08-11T18:55:50;25.70;42.60
7192;DHT22;3637;51.494;11.958;2022-08-11T18:59:11;25.60;42.90
7192;DHT22;3637;51.494;11.958;2022-08-11T19:02:36;25.50;43.20
7192;DHT22;3637;51.494;11.958;2022-08-11T19:05:57;25.40;43.30
7192;DHT22;3637;51.494;11.958;2022-08-11T19:09:19;25.40;43.40
7192;DHT22;3637;51.494;11.958;2022-08-11T19:12:40;25.30;43.50
7192;DHT22;3637;51.494;11.958;2022-08-11T19:16:03;25.30;43.40
7192;DHT22;3637;51.494;11.958;2022-08-11T19:19:26;25.20;43.80
7192;DHT22;3637;51.494;11.958;2022-08-11T19:22:47;25.10;43.90
7192;DHT22;3637;51.494;11.958;2022-08-11T19:26:07;25.10;44.00
7192;DHT22;3637;51.494;11.958;2022-08-11T19:29:28;25.00;44.10
7192;DHT22;3637;51.494;11.958;2022-08-11T19:32:48;24.90;44.60
7192;DHT22;3637;51.494;11.958;2022-08-11T19:36:10;24.80;44.50
7192;DHT22;3637;51.494;11.958;2022-08-11T19:39:31;24.80;44.90
7192;DHT22;3637;51.494;11.958;2022-08-11T19:42:51;24.70;45.00
7192;DHT22;3637;51.494;11.958;2022-08-11T19:46:12;24.70;45.00
7192;DHT22;3637;51.494;11.958;2022-08-11T19:49:32;24.70;45.10
7192;DHT22;3637;51.494;11.958;2022-08-11T19:52:54;24.60;45.20
7192;DHT22;3637;51.494;11.958;2022-08-11T19:56:15;24.50;45.60
7192;DHT22;3637;51.494;11.958;2022-08-11T19:59:36;24.40;45.80
7192;DHT22;3637;51.494;11.958;2022-08-11T20:02:57;24.40;45.20
7192;DHT22;3637;51.494;11.958;2022-08-11T20:06:17;24.30;45.20
7192;DHT22;3637;51.494;11.958;2022-08-11T20:09:41;24.30;45.10
7192;DHT22;3637;51.494;11.958;2022-08-11T20:13:01;24.20;45.10
7192;DHT22;3637;51.494;11.958;2022-08-11T20:16:22;24.20;45.20
7192;DHT22;3637;51.494;11.958;2022-08-11T20:19:41;24.10;44.80
7192;DHT22;3637;51.494;11.958;2022-08-11T20:23:03;24.10;44.70
7192;DHT22;3637;51.494;11.958;2022-08-11T20:26:24;24.00;44.30
7192;DHT22;3637;51.494;11.958;2022-08-11T20:29:44;24.00;44.20
7192;DHT22;3637;51.494;11.958;2022-08-11T20:33:05;24.00;44.00
7192;DHT22;3637;51.494;11.958;2022-08-11T20:36:27;23.90;43.60
7192;DHT22;3637;51.494;11.958;2022-08-11T20:39:49;23.90;43.80
7192;DHT22;3637;51.494;11.958;2022-08-11T20:43:12;23.80;43.80
7192;DHT22;3637;51.494;11.958;2022-08-11T20:46:33;23.70;43.50
7192;DHT22;3637;51.494;11.958;2022-08-11T20:49:53;23.70;43.80
7192;DHT22;3637;51.494;11.958;2022-08-11T20:53:16;23.70;43.60
7192;DHT22;3637;51.494;11.958;2022-08-11T20:56:36;23.60;44.90
7192;DHT22;3637;51.494;11.958;2022-08-11T20:59:58;23.60;45.00
7192;DHT22;3637;51.494;11.958;2022-08-11T21:03:17;23.50;44.90
7192;DHT22;3637;51.494;11.958;2022-08-11T21:06:37;23.50;44.00
7192;DHT22;3637;51.494;11.958;2022-08-11T21:09:58;23.50;44.10
7192;DHT22;3637;51.494;11.958;2022-08-11T21:13:19;23.40;44.60
7192;DHT22;3637;51.494;11.958;2022-08-11T21:16:41;23.30;44.90
7192;DHT22;3637;51.494;11.958;2022-08-11T21:20:04;23.30;45.50
7192;DHT22;3637;51.494;11.958;2022-08-11T21:23:26;23.20;44.50
7192;DHT22;3637;51.494;11.958;2022-08-11T21:26:48;23.20;44.90
7192;DHT22;3637;51.494;11.958;2022-08-11T21:30:09;23.20;45.00
7192;DHT22;3637;51.494;11.958;2022-08-11T21:33:30;23.10;44.70
7192;DHT22;3637;51.494;11.958;2022-08-11T21:36:50;23.10;45.20
7192;DHT22;3637;51.494;11.958;2022-08-11T21:40:11;23.00;45.30
7192;DHT22;3637;51.494;11.958;2022-08-11T21:43:33;23.00;45.80
7192;DHT22;3637;51.494;11.958;2022-08-11T21:46:54;22.90;45.70
7192;DHT22;3637;51.494;11.958;2022-08-11T21:50:15;22.90;45.10